Time;durP1;ratioP1;P1;durP2;ratioP2;P2;SDS_P1;SDS_P2;PMS_P1;PMS_P2;Temp;Humidity;BMP_temperature;BMP_pressure;BME280_temperature;BME280_humidity;BME280_pressure;Samples;Min_cycle;Max_cycle;Signal;HPM_P1;HPM_P2
2023/07/02 00:01:42;;;;;;;4.45;1.50;;;;;;;;;;5032657;28;20064;-62
2023/07/02 00:04:08;;;;;;;3.00;1.20;;;;;;;;;;5035667;28;20033;-62
2023/07/02 00:06:40;;;;;;;3.13;1.23;;;;;;;;;;5041959;28;20025;-63
2023/07/02 00:09:05;;;;;;;2.88;1.25;;;;;;;;;;5034216;28;20025;-62
2023/07/02 00:11:30;;;;;;;4.05;1.30;;;;;;;;;;5036240;28;20033;-62
2023/07/02 00:13:55;;;;;;;4.47;1.20;;;;;;;;;;5034462;28;20469;-64
2023/07/02 00:16:20;;;;;;;4.00;1.30;;;;;;;;;;5039478;28;20024;-63
2023/07/02 00:18:48;;;;;;;3.87;1.10;;;;;;;;;;5040871;28;20070;-63
2023/07/02 00:21:13;;;;;;;2.88;1.10;;;;;;;;;;5047817;28;20025;-63
2023/07/02 00:23:39;;;;;;;3.30;1.08;;;;;;;;;;5031966;28;20022;-65
2023/07/02 00:26:04;;;;;;;4.18;1.20;;;;;;;;;;5038970;28;20025;-64
2023/07/02 00:28:30;;;;;;;3.55;1.10;;;;;;;;;;5041924;28;20400;-64
2023/07/02 00:30:55;;;;;;;2.83;1.00;;;;;;;;;;5032321;28;20021;-65
2023/07/02 00:33:20;;;;;;;3.73;1.10;;;;;;;;;;5031735;28;20021;-64
2023/07/02 00:35:45;;;;;;;2.35;1.00;;;;;;;;;;5035507;28;20028;-65
2023/07/02 00:38:10;;;;;;;3.27;1.10;;;;;;;;;;5042853;28;20022;-63
2023/07/02 00:40:37;;;;;;;2.63;0.80;;;;;;;;;;5043910;28;20024;-63
2023/07/02 00:43:02;;;;;;;;;;;;;;;;;;5032677;28;20116;-63
2023/07/02 00:45:27;;;;;;;2.95;1.00;;;;;;;;;;5045743;28;19954;-64
2023/07/02 00:47:53;;;;;;;3.00;1.00;;;;;;;;;;5049899;28;20021;-63
2023/07/02 00:50:18;;;;;;;3.70;1.10;;;;;;;;;;5033878;28;20030;-62
2023/07/02 00:52:44;;;;;;;3.22;1.00;;;;;;;;;;5040321;28;20192;-62
2023/07/02 00:55:09;;;;;;;2.88;1.00;;;;;;;;;;5036851;28;20027;-63
2023/07/02 00:57:34;;;;;;;2.78;0.95;;;;;;;;;;5045699;28;20040;-63
2023/07/02 01:00:02;;;;;;;2.53;1.00;;;;;;;;;;5044810;28;20028;-63
2023/07/02 01:02:29;;;;;;;3.45;1.02;;;;;;;;;;5047977;28;20029;-63
2023/07/02 01:04:58;;;;;;;2.53;1.00;;;;;;;;;;5050890;28;20056;-63
2023/07/02 01:07:23;;;;;;;2.42;1.00;;;;;;;;;;5049704;28;20434;-66
2023/07/02 01:09:48;;;;;;;2.43;0.90;;;;;;;;;;5047470;28;20029;-64
2023/07/02 01:12:15;;;;;;;2.85;1.00;;;;;;;;;;5030639;28;20041;-64
2023/07/02 01:14:43;;;;;;;3.50;1.10;;;;;;;;;;5035970;28;20047;-63
2023/07/02 01:17:08;;;;;;;2.50;0.90;;;;;;;;;;5042979;28;20017;-61
2023/07/02 01:19:52;;;;;;;2.22;0.80;;;;;;;;;;5037177;28;20588;-64
2023/07/02 01:22:18;;;;;;;2.53;0.98;;;;;;;;;;5029527;28;20378;-63
2023/07/02 01:24:48;;;;;;;3.20;0.90;;;;;;;;;;5049713;28;20025;-64
2023/07/02 01:27:14;;;;;;;2.63;1.10;;;;;;;;;;5041727;28;20033;-64
2023/07/02 01:29:39;;;;;;;;;;;;;;;;;;5035265;28;20029;-63
2023/07/02 01:32:05;;;;;;;3.78;1.00;;;;;;;;;;5038464;28;19913;-63
2023/07/02 01:34:30;;;;;;;2.53;0.93;;;;;;;;;;5035475;28;20029;-64
2023/07/02 01:36:55;;;;;;;2.20;0.90;;;;;;;;;;5035457;28;20116;-63
2023/07/02 01:39:20;;;;;;;4.82;0.90;;;;;;;;;;5038864;28;20033;-63
2023/07/02 01:41:52;;;;;;;3.45;0.93;;;;;;;;;;5030776;28;20061;-64
2023/07/02 01:44:17;;;;;;;3.08;1.00;;;;;;;;;;5044597;28;20124;-64
2023/07/02 01:46:43;;;;;;;3.20;1.10;;;;;;;;;;5032455;28;20029;-64
2023/07/02 01:49:08;;;;;;;4.57;1.00;;;;;;;;;;5030722;28;20026;-63
2023/07/02 01:51:33;;;;;;;2.17;1.00;;;;;;;;;;5035115;28;20112;-63
2023/07/02 01:53:59;;;;;;;2.33;0.90;;;;;;;;;;5047705;28;20473;-64
2023/07/02 01:56:26;;;;;;;2.87;1.10;;;;;;;;;;5049960;28;20459;-64
2023/07/02 01:58:51;;;;;;;3.30;1.02;;;;;;;;;;5040534;28;20021;-64
2023/07/02 02:01:16;;;;;;;3.05;0.82;;;;;;;;;;5037514;28;20131;-63
2023/07/02 02:03:41;;;;;;;1.77;0.80;;;;;;;;;;5041307;28;20051;-62
2023/07/02 02:06:07;;;;;;;2.55;1.00;;;;;;;;;;5049752;28;20392;-64
2023/07/02 02:08:32;;;;;;;3.47;1.10;;;;;;;;;;5044927;28;20016;-63
2023/07/02 02:10:57;;;;;;;2.63;1.00;;;;;;;;;;5036427;28;20028;-63
2023/07/02 02:13:22;;;;;;;2.95;1.20;;;;;;;;;;5044584;28;20416;-66
2023/07/02 02:15:47;;;;;;;3.22;1.17;;;;;;;;;;5039916;28;20068;-65
2023/07/02 02:18:12;;;;;;;3.10;1.08;;;;;;;;;;5037713;28;20021;-64
2023/07/02 02:20:39;;;;;;;3.63;1.00;;;;;;;;;;5034936;28;20408;-63
2023/07/02 02:23:04;;;;;;;2.40;1.08;;;;;;;;;;5042121;28;20109;-64
2023/07/02 02:25:29;;;;;;;2.83;1.20;;;;;;;;;;5045084;28;20447;-62
2023/07/02 02:27:54;;;;;;;3.53;1.13;;;;;;;;;;5030143;28;20021;-64
2023/07/02 02:30:19;;;;;;;3.42;1.10;;;;;;;;;;5040275;28;20427;-63
2023/07/02 02:32:44;;;;;;;2.95;1.00;;;;;;;;;;5040544;28;20102;-65
2023/07/02 02:35:10;;;;;;;3.03;1.00;;;;;;;;;;5041958;28;20025;-63
2023/07/02 02:37:36;;;;;;;3.07;1.00;;;;;;;;;;5029955;28;20013;-66
2023/07/02 02:40:03;;;;;;;3.00;1.00;;;;;;;;;;5034030;28;20036;-64
2023/07/02 02:42:28;;;;;;;;;;;;;;;;;;5031144;28;20419;-63
2023/07/02 02:44:53;;;;;;;3.60;1.10;;;;;;;;;;5043683;28;20283;-63
2023/07/02 02:47:18;;;;;;;2.75;1.00;;;;;;;;;;5033745;28;20022;-63
2023/07/02 02:49:43;;;;;;;2.90;1.10;;;;;;;;;;5029351;28;20030;-65
2023/07/02 02:52:08;;;;;;;2.13;0.90;;;;;;;;;;5031439;28;20025;-63
2023/07/02 02:54:33;;;;;;;3.23;1.33;;;;;;;;;;5045739;28;20496;-63
2023/07/02 02:57:00;;;;;;;2.72;1.02;;;;;;;;;;5044587;28;20060;-64
2023/07/02 02:59:25;;;;;;;;;;;;;;;;;;5046249;28;20063;-64
2023/07/02 03:01:51;;;;;;;3.10;1.10;;;;;;;;;;5045428;28;19988;-65
2023/07/02 03:04:16;;;;;;;2.33;1.00;;;;;;;;;;5045689;28;20159;-63
2023/07/02 03:06:41;;;;;;;3.70;1.15;;;;;;;;;;5049806;28;20096;-64
2023/07/02 03:09:06;;;;;;;2.67;1.00;;;;;;;;;;5053642;28;20028;-64
2023/07/02 03:11:32;;;;;;;2.88;1.02;;;;;;;;;;5039249;28;20100;-64
2023/07/02 03:13:57;;;;;;;2.83;1.25;;;;;;;;;;5039138;28;20029;-62
2023/07/02 03:16:22;;;;;;;2.45;0.98;;;;;;;;;;5053352;28;20087;-63
2023/07/02 03:18:47;;;;;;;3.07;1.27;;;;;;;;;;5055563;28;20393;-62
2023/07/02 03:21:12;;;;;;;3.73;1.33;;;;;;;;;;5040121;28;20369;-63
2023/07/02 03:23:37;;;;;;;2.47;1.00;;;;;;;;;;5049860;28;20107;-63
2023/07/02 03:26:02;;;;;;;3.58;1.00;;;;;;;;;;5061327;28;20001;-61
2023/07/02 03:28:28;;;;;;;2.47;1.00;;;;;;;;;;5071299;28;20025;-64
2023/07/02 03:30:53;;;;;;;3.10;1.00;;;;;;;;;;5051923;28;20066;-64
2023/07/02 03:33:18;;;;;;;2.90;1.13;;;;;;;;;;5053238;28;20021;-63
2023/07/02 03:35:44;;;;;;;3.03;1.20;;;;;;;;;;5046359;28;20082;-64
2023/07/02 03:38:09;;;;;;;;;;;;;;;;;;5042285;28;20076;-64
2023/07/02 03:40:34;;;;;;;3.00;1.10;;;;;;;;;;5033395;28;19905;-64
2023/07/02 03:43:00;;;;;;;2.70;1.30;;;;;;;;;;5033021;28;20033;-65
2023/07/02 03:45:25;;;;;;;3.17;1.10;;;;;;;;;;5046649;28;20043;-62
2023/07/02 03:47:50;;;;;;;2.53;1.10;;;;;;;;;;5038799;28;20029;-63
2023/07/02 03:50:15;;;;;;;2.80;1.00;;;;;;;;;;5041520;28;20484;-64
2023/07/02 03:52:40;;;;;;;3.58;1.30;;;;;;;;;;5038181;28;20025;-65
2023/07/02 03:55:05;;;;;;;3.90;1.33;;;;;;;;;;5042326;28;20021;-62
2023/07/02 03:57:31;;;;;;;4.97;1.30;;;;;;;;;;5045713;28;20036;-63
2023/07/02 03:59:56;;;;;;;2.70;1.20;;;;;;;;;;5033171;28;20022;-64
2023/07/02 04:02:21;;;;;;;3.60;1.20;;;;;;;;;;5044089;28;20459;-62
2023/07/02 04:04:46;;;;;;;3.40;1.40;;;;;;;;;;5049363;28;20532;-63
2023/07/02 04:07:11;;;;;;;3.63;1.30;;;;;;;;;;5037446;28;20036;-65
2023/07/02 04:09:37;;;;;;;4.20;1.55;;;;;;;;;;5037922;28;20014;-64
2023/07/02 04:12:02;;;;;;;3.90;1.30;;;;;;;;;;5040424;28;20021;-62
2023/07/02 04:14:27;;;;;;;3.50;1.40;;;;;;;;;;5035428;28;20034;-65
2023/07/02 04:16:52;;;;;;;3.77;1.33;;;;;;;;;;5048922;28;20439;-61
2023/07/02 04:19:17;;;;;;;2.75;1.20;;;;;;;;;;5039223;28;20025;-62
2023/07/02 04:21:42;;;;;;;4.65;1.58;;;;;;;;;;5044655;28;20052;-64
2023/07/02 04:24:08;;;;;;;3.07;1.27;;;;;;;;;;5044278;28;20079;-62
2023/07/02 04:26:33;;;;;;;2.75;1.20;;;;;;;;;;5049922;28;20488;-63
2023/07/02 04:28:58;;;;;;;2.73;1.30;;;;;;;;;;5050028;28;20028;-63
2023/07/02 04:31:24;;;;;;;3.92;1.20;;;;;;;;;;5043248;28;20507;-64
2023/07/02 04:33:49;;;;;;;3.60;1.50;;;;;;;;;;5033790;28;20085;-64
2023/07/02 04:36:14;;;;;;;3.15;1.35;;;;;;;;;;5045808;28;20021;-64
2023/07/02 04:38:39;;;;;;;5.63;1.60;;;;;;;;;;5050515;28;20040;-64
2023/07/02 04:41:05;;;;;;;3.35;1.30;;;;;;;;;;5032245;28;20028;-64
2023/07/02 04:43:31;;;;;;;2.97;1.25;;;;;;;;;;5031099;28;20053;-62
2023/07/02 04:45:56;;;;;;;4.45;1.58;;;;;;;;;;5042322;28;20020;-63
2023/07/02 04:48:21;;;;;;;4.23;1.40;;;;;;;;;;5037270;28;20032;-64
2023/07/02 04:50:46;;;;;;;4.28;1.77;;;;;;;;;;5031843;28;20021;-64
2023/07/02 04:53:11;;;;;;;4.10;1.58;;;;;;;;;;5036946;28;20025;-64
2023/07/02 04:55:36;;;;;;;3.40;1.40;;;;;;;;;;5045813;28;20041;-63
2023/07/02 04:58:02;;;;;;;3.53;1.48;;;;;;;;;;5031837;28;20531;-65
2023/07/02 05:00:27;;;;;;;3.60;1.58;;;;;;;;;;5031868;28;20021;-64
2023/07/02 05:02:52;;;;;;;4.97;1.73;;;;;;;;;;5040076;28;20017;-64
2023/07/02 05:05:18;;;;;;;4.23;1.60;;;;;;;;;;5035786;28;20145;-65
2023/07/02 05:07:43;;;;;;;4.63;1.70;;;;;;;;;;5046236;28;20029;-63
2023/07/02 05:10:08;;;;;;;3.70;1.50;;;;;;;;;;5040980;28;20053;-64
2023/07/02 05:12:33;;;;;;;3.90;1.95;;;;;;;;;;5030725;28;20389;-64
2023/07/02 05:14:59;;;;;;;4.63;1.60;;;;;;;;;;5044464;28;20029;-64
2023/07/02 05:17:24;;;;;;;4.10;1.60;;;;;;;;;;5032820;28;20504;-64
2023/07/02 05:19:49;;;;;;;5.13;1.90;;;;;;;;;;5035008;28;20052;-66
2023/07/02 05:22:14;;;;;;;3.65;1.88;;;;;;;;;;5033257;28;20009;-63
2023/07/02 05:24:40;;;;;;;4.75;2.00;;;;;;;;;;5042686;28;20128;-64
2023/07/02 05:27:05;;;;;;;;;;;;;;;;;;5052162;28;20029;-64
2023/07/02 05:29:31;;;;;;;4.03;1.90;;;;;;;;;;5045890;28;19908;-63
2023/07/02 05:31:56;;;;;;;4.70;1.80;;;;;;;;;;5036240;28;20029;-64
2023/07/02 05:34:21;;;;;;;3.95;1.88;;;;;;;;;;5036953;28;20026;-63
2023/07/02 05:36:47;;;;;;;4.63;1.80;;;;;;;;;;5043519;28;20492;-64
2023/07/02 05:39:12;;;;;;;6.87;1.90;;;;;;;;;;5044926;28;20036;-63
2023/07/02 05:41:37;;;;;;;3.88;1.73;;;;;;;;;;5031431;28;20451;-61
2023/07/02 05:44:02;;;;;;;5.78;1.90;;;;;;;;;;5034463;28;20040;-64
2023/07/02 05:46:27;;;;;;;3.90;1.83;;;;;;;;;;5044573;28;20553;-64
2023/07/02 05:48:55;;;;;;;5.13;1.90;;;;;;;;;;5051215;28;20013;-64
2023/07/02 05:51:21;;;;;;;5.38;1.70;;;;;;;;;;5037509;28;20021;-60
2023/07/02 05:53:48;;;;;;;4.28;1.42;;;;;;;;;;5043074;28;20032;-62
2023/07/02 05:56:13;;;;;;;5.45;1.67;;;;;;;;;;5044936;28;20033;-62
2023/07/02 05:58:38;;;;;;;4.53;1.53;;;;;;;;;;5049082;28;20036;-61
2023/07/02 06:01:05;;;;;;;3.95;1.45;;;;;;;;;;5031117;28;20111;-62
2023/07/02 06:03:30;;;;;;;4.22;1.50;;;;;;;;;;5043959;28;20513;-62
2023/07/02 06:05:56;;;;;;;3.85;1.63;;;;;;;;;;5039819;28;20029;-61
2023/07/02 06:08:21;;;;;;;4.43;1.52;;;;;;;;;;5041819;28;20052;-62
2023/07/02 06:10:46;;;;;;;4.70;1.70;;;;;;;;;;5047570;28;20056;-63
2023/07/02 06:13:12;;;;;;;4.13;1.60;;;;;;;;;;5043631;28;20053;-62
2023/07/02 06:15:37;;;;;;;4.47;1.92;;;;;;;;;;5039575;28;20439;-62
2023/07/02 06:18:02;;;;;;;3.30;1.50;;;;;;;;;;5030912;28;20022;-62
2023/07/02 06:20:27;;;;;;;5.60;1.90;;;;;;;;;;5030818;28;20037;-63
2023/07/02 06:22:52;;;;;;;4.83;1.93;;;;;;;;;;5037148;28;20519;-62
2023/07/02 06:25:18;;;;;;;4.65;1.70;;;;;;;;;;5040489;28;20025;-62
2023/07/02 06:27:43;;;;;;;5.53;1.70;;;;;;;;;;5039863;28;20021;-62
2023/07/02 06:30:08;;;;;;;4.97;2.00;;;;;;;;;;5030451;28;20018;-62
2023/07/02 06:32:33;;;;;;;4.90;1.90;;;;;;;;;;5035527;28;20024;-61
2023/07/02 06:34:58;;;;;;;3.40;1.65;;;;;;;;;;5041221;28;20447;-62
2023/07/02 06:37:23;;;;;;;3.50;1.50;;;;;;;;;;5042467;28;20024;-63
2023/07/02 06:39:49;;;;;;;4.22;1.88;;;;;;;;;;5040512;28;20033;-63
2023/07/02 06:42:14;;;;;;;4.32;2.00;;;;;;;;;;5054120;28;20465;-63
2023/07/02 06:44:40;;;;;;;4.03;1.77;;;;;;;;;;5050556;28;20064;-62
2023/07/02 06:47:05;;;;;;;4.82;1.98;;;;;;;;;;5034235;28;20558;-62
2023/07/02 06:49:30;;;;;;;4.37;1.70;;;;;;;;;;5033965;28;20017;-61
2023/07/02 06:51:55;;;;;;;6.32;1.77;;;;;;;;;;5050741;28;20029;-62
2023/07/02 06:54:20;;;;;;;3.60;1.80;;;;;;;;;;5047828;28;20022;-62
2023/07/02 06:56:45;;;;;;;4.33;1.70;;;;;;;;;;5036948;28;20028;-62
2023/07/02 06:59:11;;;;;;;6.07;1.70;;;;;;;;;;5037836;28;20518;-60
2023/07/02 07:01:36;;;;;;;4.78;1.90;;;;;;;;;;5043218;28;20388;-62
2023/07/02 07:04:01;;;;;;;5.00;1.58;;;;;;;;;;5047712;28;20033;-61
2023/07/02 07:06:26;;;;;;;4.13;1.60;;;;;;;;;;5049048;28;20017;-61
2023/07/02 07:08:51;;;;;;;3.83;1.70;;;;;;;;;;5039587;28;20022;-62
2023/07/02 07:11:17;;;;;;;3.70;1.70;;;;;;;;;;5046320;28;20025;-63
2023/07/02 07:13:43;;;;;;;5.97;2.00;;;;;;;;;;5045598;28;20086;-62
2023/07/02 07:16:08;;;;;;;4.13;1.80;;;;;;;;;;5050591;28;20079;-62
2023/07/02 07:18:33;;;;;;;4.65;1.90;;;;;;;;;;5055457;28;20021;-61
2023/07/02 07:20:59;;;;;;;3.17;1.45;;;;;;;;;;5067683;28;20032;-62
2023/07/02 07:23:24;;;;;;;4.80;1.65;;;;;;;;;;5047673;28;20064;-64
2023/07/02 07:25:49;;;;;;;4.43;2.00;;;;;;;;;;5051988;28;20435;-61
2023/07/02 07:28:15;;;;;;;4.07;1.70;;;;;;;;;;5040687;28;20013;-63
2023/07/02 07:30:41;;;;;;;4.65;2.13;;;;;;;;;;5038569;28;20068;-62
2023/07/02 07:33:06;;;;;;;4.93;2.20;;;;;;;;;;5042842;28;20105;-62
2023/07/02 07:35:31;;;;;;;5.18;2.42;;;;;;;;;;5045197;28;20091;-61
2023/07/02 07:37:56;;;;;;;4.68;2.25;;;;;;;;;;5032638;28;20030;-63
2023/07/02 07:40:22;;;;;;;6.93;2.13;;;;;;;;;;5043602;28;20057;-61
2023/07/02 07:42:47;;;;;;;5.57;2.20;;;;;;;;;;5048969;28;20067;-62
2023/07/02 07:45:12;;;;;;;5.03;2.20;;;;;;;;;;5044548;28;20036;-61
2023/07/02 07:47:38;;;;;;;5.43;2.10;;;;;;;;;;5039016;28;20021;-61
2023/07/02 07:50:08;;;;;;;4.10;2.30;;;;;;;;;;5040945;28;20067;-63
2023/07/02 07:52:33;;;;;;;4.20;2.00;;;;;;;;;;5037977;28;20025;-62
2023/07/02 07:54:58;;;;;;;5.37;2.23;;;;;;;;;;5048236;28;20028;-61
2023/07/02 07:57:24;;;;;;;5.25;2.03;;;;;;;;;;5038546;28;20559;-62
2023/07/02 07:59:49;;;;;;;5.28;2.03;;;;;;;;;;5037975;28;20041;-62
2023/07/02 08:02:14;;;;;;;5.53;1.88;;;;;;;;;;5033510;28;20032;-62
2023/07/02 08:04:39;;;;;;;3.67;1.73;;;;;;;;;;5040389;28;20485;-62
2023/07/02 08:07:06;;;;;;;3.97;1.90;;;;;;;;;;5050036;28;20036;-62
2023/07/02 08:09:31;;;;;;;4.10;1.73;;;;;;;;;;5051143;28;20033;-61
2023/07/02 08:11:56;;;;;;;4.27;1.80;;;;;;;;;;5038172;28;20078;-63
2023/07/02 08:14:21;;;;;;;5.07;1.80;;;;;;;;;;5039790;28;20029;-62
2023/07/02 08:16:47;;;;;;;3.40;1.70;;;;;;;;;;5036617;28;20086;-61
2023/07/02 08:19:12;;;;;;;4.33;1.80;;;;;;;;;;5040652;28;20037;-62
2023/07/02 08:21:37;;;;;;;3.97;1.50;;;;;;;;;;5044966;28;20112;-63
2023/07/02 08:24:02;;;;;;;4.18;1.70;;;;;;;;;;5047925;28;20075;-62
2023/07/02 08:26:28;;;;;;;4.47;2.03;;;;;;;;;;5039493;28;20409;-62
2023/07/02 08:28:53;;;;;;;3.35;1.70;;;;;;;;;;5042296;28;20028;-61
2023/07/02 08:31:18;;;;;;;3.67;1.50;;;;;;;;;;5033285;28;20492;-63
2023/07/02 08:33:43;;;;;;;4.00;1.67;;;;;;;;;;5031582;28;20017;-61
2023/07/02 08:36:09;;;;;;;5.22;1.60;;;;;;;;;;5036143;28;20021;-61
2023/07/02 08:38:34;;;;;;;4.13;1.77;;;;;;;;;;5039300;28;20389;-63
2023/07/02 08:41:00;;;;;;;4.07;1.67;;;;;;;;;;5042314;28;20105;-62
2023/07/02 08:43:25;;;;;;;3.97;1.30;;;;;;;;;;5034688;28;20021;-60
2023/07/02 08:45:51;;;;;;;3.78;1.55;;;;;;;;;;5038791;28;20026;-61
2023/07/02 08:48:22;;;;;;;4.63;1.80;;;;;;;;;;5040960;28;20428;-63
2023/07/02 08:50:47;;;;;;;4.20;1.45;;;;;;;;;;5032164;28;20021;-63
2023/07/02 08:53:12;;;;;;;6.80;1.60;;;;;;;;;;5031565;28;20104;-63
2023/07/02 08:55:37;;;;;;;5.40;1.83;;;;;;;;;;5032742;28;20124;-63
2023/07/02 08:58:02;;;;;;;3.83;1.52;;;;;;;;;;5049593;28;20040;-63
2023/07/02 09:00:30;;;;;;;3.47;1.40;;;;;;;;;;5044959;28;20029;-63
2023/07/02 09:02:56;;;;;;;5.82;1.40;;;;;;;;;;5048033;28;20028;-64
2023/07/02 09:05:21;;;;;;;4.13;1.30;;;;;;;;;;5036594;28;20017;-64
2023/07/02 09:07:47;;;;;;;3.90;1.50;;;;;;;;;;5046812;28;20090;-63
2023/07/02 09:10:12;;;;;;;3.38;1.40;;;;;;;;;;5037876;28;20491;-63
2023/07/02 09:12:38;;;;;;;5.28;1.50;;;;;;;;;;5043748;28;20028;-64
2023/07/02 09:15:06;;;;;;;3.83;1.55;;;;;;;;;;5045336;28;20017;-62
2023/07/02 09:17:35;;;;;;;3.38;1.40;;;;;;;;;;5048525;28;20028;-63
2023/07/02 09:20:02;;;;;;;3.60;1.55;;;;;;;;;;5037532;28;20377;-64
2023/07/02 09:22:27;;;;;;;4.53;1.67;;;;;;;;;;5038644;28;20404;-62
2023/07/02 09:24:54;;;;;;;4.07;1.40;;;;;;;;;;5031231;28;20029;-62
2023/07/02 09:27:19;;;;;;;3.40;1.40;;;;;;;;;;5040916;28;20112;-62
2023/07/02 09:29:49;;;;;;;3.15;1.40;;;;;;;;;;5046688;28;20103;-65
2023/07/02 09:32:23;;;;;;;3.08;1.25;;;;;;;;;;5037233;28;20100;-62
2023/07/02 09:34:48;;;;;;;3.50;1.33;;;;;;;;;;5054272;28;20497;-62
2023/07/02 09:37:13;;;;;;;3.75;1.20;;;;;;;;;;5034231;28;20025;-65
2023/07/02 09:39:39;;;;;;;4.00;1.43;;;;;;;;;;5049540;28;20037;-63
2023/07/02 09:42:09;;;;;;;3.33;1.45;;;;;;;;;;5038252;28;20395;-63
2023/07/02 09:44:35;;;;;;;3.95;1.40;;;;;;;;;;5034376;28;20094;-64
2023/07/02 09:47:00;;;;;;;3.78;1.77;;;;;;;;;;5049168;28;20354;-62
2023/07/02 09:49:25;;;;;;;3.00;1.20;;;;;;;;;;5048867;28;20021;-61
2023/07/02 09:51:51;;;;;;;3.50;1.40;;;;;;;;;;5049232;28;20025;-63
2023/07/02 09:54:16;;;;;;;3.25;1.30;;;;;;;;;;5038339;28;20480;-62
2023/07/02 09:56:43;;;;;;;3.28;1.27;;;;;;;;;;5041716;28;20021;-63
2023/07/02 09:59:08;;;;;;;5.00;1.40;;;;;;;;;;5041589;28;20028;-63
2023/07/02 10:01:33;;;;;;;3.85;1.60;;;;;;;;;;5046826;28;20384;-64
2023/07/02 10:04:09;;;;;;;3.33;1.30;;;;;;;;;;5047084;28;20086;-62
2023/07/02 10:06:43;;;;;;;3.67;1.50;;;;;;;;;;5036958;28;20017;-62
2023/07/02 10:09:09;;;;;;;4.45;1.35;;;;;;;;;;5046066;28;20041;-63
2023/07/02 10:11:37;;;;;;;2.67;1.20;;;;;;;;;;5037741;28;20021;-63
2023/07/02 10:14:02;;;;;;;4.03;1.40;;;;;;;;;;5039023;28;20461;-62
2023/07/02 10:16:27;;;;;;;3.33;1.43;;;;;;;;;;5037494;28;20044;-63
2023/07/02 10:18:53;;;;;;;4.40;1.33;;;;;;;;;;5048749;28;20092;-63
2023/07/02 10:21:18;;;;;;;3.70;1.50;;;;;;;;;;5034602;28;20420;-62
2023/07/02 10:23:43;;;;;;;3.07;1.43;;;;;;;;;;5031071;28;20056;-62
2023/07/02 10:26:18;;;;;;;3.08;1.30;;;;;;;;;;5050505;28;20113;-62
2023/07/02 10:28:55;;;;;;;5.95;1.45;;;;;;;;;;5050254;28;20385;-62
2023/07/02 10:31:20;;;;;;;4.78;1.30;;;;;;;;;;5037989;28;20104;-61
2023/07/02 10:33:46;;;;;;;3.05;1.20;;;;;;;;;;5050153;28;20092;-62
2023/07/02 10:36:19;;;;;;;4.00;1.42;;;;;;;;;;5047675;28;20040;-62
2023/07/02 10:38:44;;;;;;;3.15;1.40;;;;;;;;;;5050989;28;20033;-61
2023/07/02 10:41:09;;;;;;;3.58;1.42;;;;;;;;;;5047894;28;20021;-61
2023/07/02 10:43:34;;;;;;;3.50;1.48;;;;;;;;;;5051403;28;20408;-62
2023/07/02 10:46:00;;;;;;;3.70;1.20;;;;;;;;;;5056071;28;20025;-63
2023/07/02 10:48:25;;;;;;;2.85;1.10;;;;;;;;;;5057985;28;20025;-62
2023/07/02 10:50:50;;;;;;;3.40;1.30;;;;;;;;;;5048988;28;20048;-61
2023/07/02 10:53:16;;;;;;;3.20;1.20;;;;;;;;;;5049454;28;20025;-61
2023/07/02 10:55:41;;;;;;;4.80;1.50;;;;;;;;;;5039603;28;20060;-60
2023/07/02 10:58:07;;;;;;;3.45;1.23;;;;;;;;;;5042092;28;20080;-62
2023/07/02 11:00:33;;;;;;;4.50;1.40;;;;;;;;;;5039553;28;20017;-63
2023/07/02 11:02:59;;;;;;;3.78;1.20;;;;;;;;;;5049552;28;20033;-61
2023/07/02 11:05:24;;;;;;;3.95;1.23;;;;;;;;;;5041156;28;20060;-61
2023/07/02 11:07:56;;;;;;;4.60;1.40;;;;;;;;;;5042056;28;20021;-62
2023/07/02 11:10:22;;;;;;;3.47;1.20;;;;;;;;;;5047505;28;20351;-62
2023/07/02 11:12:47;;;;;;;3.78;1.30;;;;;;;;;;5036262;28;20508;-64
2023/07/02 11:15:13;;;;;;;3.37;1.40;;;;;;;;;;5042552;28;20021;-60
2023/07/02 11:17:40;;;;;;;4.32;1.33;;;;;;;;;;5030350;28;20018;-62
2023/07/02 11:20:06;;;;;;;3.65;1.30;;;;;;;;;;5045361;28;20393;-63
2023/07/02 11:22:32;;;;;;;5.20;1.30;;;;;;;;;;5050396;28;20100;-63
2023/07/02 11:25:08;;;;;;;3.35;1.30;;;;;;;;;;5035447;28;20029;-64
2023/07/02 11:27:33;;;;;;;6.20;1.60;;;;;;;;;;5038641;28;20017;-62
2023/07/02 11:30:01;;;;;;;3.63;1.33;;;;;;;;;;5044277;28;20074;-63
2023/07/02 11:32:26;;;;;;;3.40;1.40;;;;;;;;;;5037763;28;20595;-61
2023/07/02 11:34:55;;;;;;;4.50;1.30;;;;;;;;;;5051735;28;20029;-63
2023/07/02 11:37:22;;;;;;;5.38;1.65;;;;;;;;;;5050115;28;20427;-63
2023/07/02 11:39:47;;;;;;;2.95;1.20;;;;;;;;;;5036118;28;20025;-62
2023/07/02 11:42:12;;;;;;;4.40;1.40;;;;;;;;;;5048469;28;20025;-63
2023/07/02 11:44:37;;;;;;;;;;;;;;;;;;5046974;28;20092;-64
2023/07/02 11:47:03;;;;;;;3.97;1.17;;;;;;;;;;5040420;28;20322;-62
2023/07/02 11:49:28;;;;;;;4.30;1.20;;;;;;;;;;5050901;28;20105;-61
2023/07/02 11:51:53;;;;;;;;;;;;;;;;;;5043919;28;20377;-62
2023/07/02 11:54:18;;;;;;;4.63;1.30;;;;;;;;;;5043708;28;19917;-63
2023/07/02 11:56:44;;;;;;;3.80;1.27;;;;;;;;;;5047521;28;20061;-63
2023/07/02 11:59:09;;;;;;;3.65;1.35;;;;;;;;;;5036197;28;20489;-63
2023/07/02 12:01:34;;;;;;;3.40;1.23;;;;;;;;;;5048194;28;20484;-62
2023/07/02 12:03:59;;;;;;;4.90;1.30;;;;;;;;;;5046531;28;20491;-63
2023/07/02 12:06:25;;;;;;;4.57;1.30;;;;;;;;;;5049747;28;20031;-62
2023/07/02 12:08:50;;;;;;;3.20;1.20;;;;;;;;;;5039203;28;20013;-61
2023/07/02 12:11:15;;;;;;;3.90;1.38;;;;;;;;;;5044246;28;20037;-61
2023/07/02 12:13:40;;;;;;;4.03;1.35;;;;;;;;;;5035037;28;20013;-63
2023/07/02 12:16:06;;;;;;;3.57;1.30;;;;;;;;;;5041865;28;20104;-62
2023/07/02 12:18:31;;;;;;;3.80;1.50;;;;;;;;;;5042568;28;20024;-62
2023/07/02 12:20:56;;;;;;;3.88;1.40;;;;;;;;;;5052827;28;20047;-61
2023/07/02 12:23:21;;;;;;;4.25;1.45;;;;;;;;;;5037662;28;20080;-60
2023/07/02 12:25:46;;;;;;;4.68;1.42;;;;;;;;;;5041264;28;20343;-63
2023/07/02 12:28:11;;;;;;;3.37;1.37;;;;;;;;;;5050795;28;20053;-63
2023/07/02 12:30:36;;;;;;;5.30;1.60;;;;;;;;;;5051856;28;20013;-62
2023/07/02 12:33:02;;;;;;;5.40;1.55;;;;;;;;;;5050281;28;20108;-62
2023/07/02 12:35:27;;;;;;;5.40;1.50;;;;;;;;;;5039760;28;20032;-62
2023/07/02 12:37:52;;;;;;;4.00;1.65;;;;;;;;;;5048044;28;20092;-63
2023/07/02 12:40:18;;;;;;;6.57;1.85;;;;;;;;;;5041943;28;20020;-62
2023/07/02 12:42:44;;;;;;;5.43;1.65;;;;;;;;;;5044321;28;20021;-62
2023/07/02 12:45:11;;;;;;;4.38;1.65;;;;;;;;;;5044733;28;20036;-62
2023/07/02 12:47:36;;;;;;;6.05;1.65;;;;;;;;;;5050815;28;20040;-62
2023/07/02 12:50:01;;;;;;;6.43;1.83;;;;;;;;;;5048380;28;20429;-63
2023/07/02 12:52:26;;;;;;;;;;;;;;;;;;5050178;28;20028;-62
2023/07/02 12:54:51;;;;;;;4.63;1.52;;;;;;;;;;5050926;28;19964;-62
2023/07/02 12:57:16;;;;;;;;;;;;;;;;;;5050274;28;20021;-62
2023/07/02 12:59:41;;;;;;;7.00;1.90;;;;;;;;;;5046232;28;20484;-61
2023/07/02 13:02:07;;;;;;;6.35;1.60;;;;;;;;;;5048371;28;20075;-62
2023/07/02 13:04:32;;;;;;;4.47;1.40;;;;;;;;;;5050206;28;20029;-61
2023/07/02 13:06:57;;;;;;;4.18;1.40;;;;;;;;;;5034581;28;20473;-62
2023/07/02 13:09:22;;;;;;;6.18;1.60;;;;;;;;;;5047334;28;20017;-61
2023/07/02 13:11:47;;;;;;;5.37;1.60;;;;;;;;;;5053008;28;20021;-63
2023/07/02 13:14:12;;;;;;;5.30;1.60;;;;;;;;;;5034720;28;20447;-63
2023/07/02 13:16:38;;;;;;;4.18;1.80;;;;;;;;;;5049018;28;20060;-63
2023/07/02 13:19:03;;;;;;;5.27;1.83;;;;;;;;;;5051277;28;20017;-62
2023/07/02 13:21:28;;;;;;;3.97;1.50;;;;;;;;;;5052103;28;20040;-63
2023/07/02 13:23:53;;;;;;;;;;;;;;;;;;5051810;28;20032;-62
2023/07/02 13:26:19;;;;;;;4.80;1.80;;;;;;;;;;5051732;28;19911;-62
2023/07/02 13:28:47;;;;;;;7.13;1.95;;;;;;;;;;5042988;28;20022;-62
2023/07/02 13:31:12;;;;;;;6.07;2.10;;;;;;;;;;5048380;28;20021;-61
2023/07/02 13:33:39;;;;;;;8.93;1.90;;;;;;;;;;5047765;28;20031;-63
2023/07/02 13:36:04;;;;;;;6.95;2.10;;;;;;;;;;5051007;28;20021;-62
2023/07/02 13:38:29;;;;;;;6.57;2.30;;;;;;;;;;5050154;28;20016;-61
2023/07/02 13:40:54;;;;;;;5.63;2.17;;;;;;;;;;5046977;28;20519;-63
2023/07/02 13:43:19;;;;;;;6.95;2.25;;;;;;;;;;5050422;28;20094;-63
2023/07/02 13:45:44;;;;;;;6.20;1.97;;;;;;;;;;5033550;28;20025;-61
2023/07/02 13:48:10;;;;;;;6.73;2.00;;;;;;;;;;5046534;28;20072;-62
2023/07/02 13:50:35;;;;;;;6.05;1.90;;;;;;;;;;5044305;28;20059;-61
2023/07/02 13:53:00;;;;;;;5.47;2.20;;;;;;;;;;5048667;28;20032;-62
2023/07/02 13:55:27;;;;;;;;;;;;;;;;;;5048128;28;20022;-60
2023/07/02 13:57:54;;;;;;;6.50;2.85;;;;;;;;;;5035558;28;19915;-62
2023/07/02 14:00:19;;;;;;;7.60;2.40;;;;;;;;;;5046263;28;20032;-63
2023/07/02 14:02:44;;;;;;;6.63;2.25;;;;;;;;;;5050040;28;20021;-62
2023/07/02 14:05:10;;;;;;;5.68;2.00;;;;;;;;;;5051078;28;20044;-60
2023/07/02 14:07:35;;;;;;;5.50;2.10;;;;;;;;;;5051020;28;20025;-62
2023/07/02 14:10:00;;;;;;;;;;;;;;;;;;5049386;28;20107;-62
2023/07/02 14:12:25;;;;;;;4.40;2.10;;;;;;;;;;5049743;28;20261;-61
2023/07/02 14:14:50;;;;;;;;;;;;;;;;;;5045234;28;20029;-62
2023/07/02 14:17:15;;;;;;;5.63;2.13;;;;;;;;;;5046455;28;20473;-62
2023/07/02 14:19:40;;;;;;;;;;;;;;;;;;5051334;28;20178;-62
2023/07/02 14:22:05;;;;;;;5.40;2.05;;;;;;;;;;5050124;28;20281;-62
2023/07/02 14:24:31;;;;;;;8.13;2.42;;;;;;;;;;5050284;28;20102;-63
2023/07/02 14:26:56;;;;;;;5.73;2.00;;;;;;;;;;5046599;28;20029;-62
2023/07/02 14:29:21;;;;;;;5.90;2.20;;;;;;;;;;5035192;28;20083;-62
2023/07/02 14:31:46;;;;;;;7.38;2.35;;;;;;;;;;5043711;28;20016;-61
2023/07/02 14:34:11;;;;;;;6.90;2.20;;;;;;;;;;5044929;28;20037;-62
2023/07/02 14:36:36;;;;;;;6.70;2.13;;;;;;;;;;5050166;28;20172;-61
2023/07/02 14:39:01;;;;;;;6.82;2.55;;;;;;;;;;5050290;28;20017;-62